Time;durP1;ratioP1;P1;durP2;ratioP2;P2;SDS_P1;SDS_P2;PMS_P1;PMS_P2;Temp;Humidity;BMP_temperature;BMP_pressure;BME280_temperature;BME280_humidity;BME280_pressure;Samples;Min_cycle;Max_cycle;Signal;HPM_P1;HPM_P2
2023/03/09 00:01:25;;;;;;;15.13;7.80;;;;;;;8.86;54.55;98679.94;6172633;23;20089;-94
2023/03/09 00:04:25;;;;;;;21.50;8.45;;;;;;;8.87;54.50;98685.03;6144471;23;20006;-94
2023/03/09 00:07:07;;;;;;;15.93;7.97;;;;;;;8.92;54.25;98686.09;6154183;23;19997;-94
2023/03/09 00:09:49;;;;;;;13.85;7.10;;;;;;;8.83;54.51;98670.53;6128038;23;20036;-96
2023/03/09 00:15:53;;;;;;;17.58;8.20;;;;;;;8.65;54.94;98666.59;6050193;23;19999;-94
2023/03/09 00:19:20;;;;;;;16.65;8.15;;;;;;;8.63;54.42;98638.41;6123197;23;20001;-94
2023/03/09 00:21:56;;;;;;;19.02;9.20;;;;;;;8.67;54.69;98648.34;6150630;23;20009;-94
2023/03/09 00:24:45;;;;;;;15.65;9.38;;;;;;;8.61;54.83;98648.63;6129918;23;20001;-94
2023/03/09 00:27:46;;;;;;;18.17;9.10;;;;;;;8.67;54.67;98652.88;6127215;23;19997;-94
2023/03/09 00:30:40;;;;;;;19.80;9.03;;;;;;;8.60;55.00;98647.81;6151704;23;20478;-94
2023/03/09 00:33:32;;;;;;;17.75;8.80;;;;;;;8.71;54.98;98648.56;6127835;23;20004;-95
2023/03/09 00:36:31;;;;;;;16.77;8.35;;;;;;;8.50;55.76;98645.16;6130323;23;20077;-94
2023/03/09 00:39:14;;;;;;;12.75;8.57;;;;;;;8.50;55.59;98645.94;6147692;23;20009;-95
2023/03/09 00:41:54;;;;;;;16.95;8.20;;;;;;;8.48;55.63;98640.06;6147172;23;20001;-95
2023/03/09 00:44:27;;;;;;;17.10;8.38;;;;;;;8.34;55.71;98633.63;6124956;23;20005;-93
2023/03/09 00:47:07;;;;;;;13.63;8.65;;;;;;;8.43;55.75;98639.28;6150606;23;20056;-94
2023/03/09 00:49:47;;;;;;;17.65;8.38;;;;;;;8.39;56.10;98630.94;6126348;23;20559;-95
2023/03/09 00:52:18;;;;;;;18.27;8.10;;;;;;;8.45;55.58;98650.56;6148919;23;20001;-95
2023/03/09 00:55:05;;;;;;;19.00;8.15;;;;;;;8.23;56.13;98638.22;6126143;23;20001;-94
2023/03/09 00:58:43;;;;;;;18.17;7.82;;;;;;;8.20;56.31;98646.81;6152675;23;20037;-92
2023/03/09 01:06:36;;;;;;;16.27;7.95;;;;;;;7.92;57.28;98642.81;6084450;23;20034;-94
2023/03/09 01:09:57;;;;;;;12.55;6.47;;;;;;;7.91;56.82;98638.53;5997144;24;20012;-93
2023/03/09 01:13:05;;;;;;;19.95;8.68;;;;;;;7.84;57.40;98641.50;5943055;24;20020;-95
2023/03/09 01:16:31;;;;;;;;;;;;;;;;;;;;;
2023/03/09 01:19:22;;;;;;;13.25;7.80;;;;;;;7.94;57.08;98639.88;5877611;24;20009;-94
2023/03/09 01:22:40;;;;;;;;;;;;;;;;;;;;;
2023/03/09 01:26:07;;;;;;;13.05;7.20;;;;;;;7.78;57.31;98626.47;5943917;24;20033;-93
2023/03/09 01:29:41;;;;;;;;;;;;;;;;;;;;;
2023/03/09 01:42:53;;;;;;;13.30;6.75;;;;;;;7.59;58.15;98631.53;6177643;23;20064;-93
2023/03/09 01:45:57;;;;;;;;;;;;;;;;;;;;;
2023/03/09 01:48:34;;;;;;;11.93;7.10;;;;;;;7.21;59.69;98627.47;6118933;23;20393;-94
2023/03/09 01:51:51;;;;;;;;;;;;;;;;;;;;;
2023/03/09 01:54:59;;;;;;;19.58;7.32;;;;;;;7.39;59.16;98626.19;6045323;23;20014;-94
2023/03/09 01:57:56;;;;;;;12.20;6.82;;;;;;;7.51;58.67;98624.03;6038361;23;20011;-95
2023/03/09 02:00:24;;;;;;;14.25;7.28;;;;;;;7.62;58.19;98616.84;5977379;23;20007;-93
2023/03/09 02:03:13;;;;;;;13.77;7.68;;;;;;;7.77;58.16;98616.81;5968832;23;20030;-92
2023/03/09 02:05:44;;;;;;;17.48;7.65;;;;;;;7.69;58.12;98617.34;6000890;23;20113;-93
2023/03/09 02:08:10;;;;;;;18.20;7.75;;;;;;;7.56;58.53;98593.78;5991311;23;20514;-92
2023/03/09 02:10:50;;;;;;;16.95;8.30;;;;;;;7.52;58.51;98600.75;6011341;23;20460;-93
2023/03/09 02:13:18;;;;;;;12.93;7.22;;;;;;;7.62;58.39;98619.50;6027193;23;20013;-93
2023/03/09 02:15:43;;;;;;;13.85;7.80;;;;;;;7.55;58.19;98589.50;6023948;23;20033;-92
2023/03/09 02:18:09;;;;;;;16.73;8.18;;;;;;;7.75;57.89;98605.56;6063025;23;20344;-93
2023/03/09 04:28:01;;;;;;;9.93;6.35;;;;;;;7.27;59.92;98557.59;6155642;22;20391;-93
2023/03/09 04:30:26;;;;;;;14.95;6.85;;;;;;;7.26;60.31;98571.25;6112538;23;20021;-94
2023/03/09 04:32:52;;;;;;;14.13;6.88;;;;;;;7.24;60.04;98560.84;6111968;23;20055;-94
2023/03/09 04:35:20;;;;;;;9.80;6.55;;;;;;;7.39;59.16;98565.38;6111887;23;20005;-94
2023/03/09 04:38:05;;;;;;;13.80;6.70;;;;;;;7.39;58.67;98556.56;6115255;23;20003;-96
2023/03/09 04:40:33;;;;;;;7.15;4.20;;;;;;;7.59;57.79;98572.59;6149597;23;20011;-94
2023/03/09 04:43:07;;;;;;;5.72;3.90;;;;;;;7.62;57.43;98558.69;6114943;23;20084;-96
2023/03/09 04:45:41;;;;;;;9.77;4.18;;;;;;;7.76;56.97;98569.66;6139477;23;20001;-96
2023/03/09 04:48:07;;;;;;;7.68;4.13;;;;;;;7.74;56.58;98549.56;6116015;23;19997;-95
2023/03/09 04:50:33;;;;;;;6.60;4.03;;;;;;;7.83;56.39;98553.31;6112071;23;20013;-94
2023/03/09 04:52:59;;;;;;;8.13;4.47;;;;;;;8.01;56.00;98562.63;6112587;23;20432;-93
2023/03/09 04:55:25;;;;;;;9.65;3.92;;;;;;;7.85;56.10;98549.28;6113063;23;20001;-92
2023/03/09 04:57:51;;;;;;;12.57;5.97;;;;;;;7.93;57.25;98563.19;6112290;23;20100;-93
2023/03/09 05:00:17;;;;;;;12.85;6.97;;;;;;;7.78;57.97;98550.63;6112469;23;20009;-93
2023/03/09 05:02:43;;;;;;;19.50;8.10;;;;;;;7.96;57.52;98573.38;6136749;23;20455;-92
2023/03/09 05:05:09;;;;;;;15.07;6.40;;;;;;;8.03;57.32;98576.56;6113394;23;20080;-92
2023/03/09 05:07:35;;;;;;;21.52;8.27;;;;;;;7.99;57.36;98562.94;6112854;23;20416;-94
2023/03/09 05:10:01;;;;;;;10.50;6.03;;;;;;;7.97;57.81;98570.44;6112807;23;20001;-93
2023/03/09 05:12:31;;;;;;;17.38;8.07;;;;;;;8.01;57.76;98568.00;6112791;23;20001;-93
2023/03/09 05:14:59;;;;;;;20.45;6.90;;;;;;;7.96;58.02;98559.97;6114446;23;20016;-93
2023/03/09 05:17:25;;;;;;;18.90;8.35;;;;;;;7.99;58.05;98581.69;6113796;23;19997;-92
2023/03/09 05:19:51;;;;;;;13.68;7.25;;;;;;;8.01;57.81;98586.75;6114266;23;20023;-93
2023/03/09 05:22:19;;;;;;;14.43;6.60;;;;;;;7.84;57.78;98574.50;6114766;23;20006;-92
2023/03/09 05:24:45;;;;;;;17.42;7.40;;;;;;;7.95;58.19;98587.84;6136665;23;19997;-93
2023/03/09 05:27:14;;;;;;;13.73;6.43;;;;;;;7.89;57.72;98587.06;6112607;23;20443;-94
2023/03/09 05:29:40;;;;;;;16.20;6.32;;;;;;;7.87;57.60;98576.63;6167629;23;20015;-93
2023/03/09 05:32:06;;;;;;;15.98;6.35;;;;;;;7.96;57.47;98581.44;6144195;23;20001;-94
2023/03/09 05:34:31;;;;;;;22.30;8.10;;;;;;;7.82;58.10;98552.50;6193828;23;20083;-92
2023/03/09 05:36:57;;;;;;;18.92;6.93;;;;;;;8.03;57.59;98561.31;6143527;23;20044;-94
2023/03/09 05:39:36;;;;;;;15.95;7.38;;;;;;;8.23;57.09;98571.16;6144924;23;20000;-93
2023/03/09 05:45:56;;;;;;;15.68;6.30;;;;;;;8.47;56.57;98590.19;6156806;23;20012;-94
2023/03/09 05:48:22;;;;;;;20.52;6.60;;;;;;;8.49;56.14;98563.09;6131781;23;19997;-93
2023/03/09 05:50:48;;;;;;;20.88;11.40;;;;;;;8.52;56.33;98575.94;6130230;23;20009;-91
2023/03/09 05:53:13;;;;;;;21.90;6.30;;;;;;;8.60;55.50;98566.53;6131195;23;20002;-90
2023/03/09 05:55:41;;;;;;;10.60;6.00;;;;;;;8.70;55.17;98566.47;6107076;23;20005;-92
2023/03/09 05:58:07;;;;;;;16.27;7.28;;;;;;;8.82;55.01;98563.44;6106957;23;20002;-92
2023/03/09 06:00:32;;;;;;;23.42;7.65;;;;;;;8.93;55.25;98573.06;6106852;23;20005;-91
2023/03/09 06:02:58;;;;;;;16.02;7.93;;;;;;;9.00;54.86;98572.75;6107463;23;20002;-92
2023/03/09 06:05:23;;;;;;;22.05;6.95;;;;;;;9.19;53.86;98580.94;6110324;23;20005;-93
2023/03/09 06:07:51;;;;;;;23.33;9.95;;;;;;;9.26;53.73;98578.78;6141828;23;19993;-92
2023/03/09 06:10:16;;;;;;;15.52;8.00;;;;;;;9.32;53.39;98580.34;6142830;23;20008;-93
2023/03/09 06:12:42;;;;;;;19.58;8.32;;;;;;;9.45;53.41;98592.34;6142543;23;20000;-92
2023/03/09 06:15:08;;;;;;;17.67;9.90;;;;;;;9.64;52.90;98592.44;6172747;23;20000;-96
2023/03/09 06:17:37;;;;;;;34.50;14.65;;;;;;;9.73;52.64;98593.44;6145624;23;20075;-93
2023/03/09 06:20:03;;;;;;;30.48;11.60;;;;;;;9.96;52.08;98609.91;6144019;23;20009;-92
2023/03/09 06:22:29;;;;;;;19.73;9.70;;;;;;;10.03;52.76;98605.03;6145073;23;20067;-94
2023/03/09 06:25:01;;;;;;;22.67;9.55;;;;;;;10.09;52.56;98611.97;6143360;23;20004;-94
2023/03/09 06:27:26;;;;;;;18.38;10.07;;;;;;;10.04;52.85;98595.84;6143819;23;20016;-94
2023/03/09 06:29:53;;;;;;;27.30;9.27;;;;;;;9.91;53.38;98606.19;6141353;23;20088;-92
2023/03/09 06:32:32;;;;;;;21.73;8.52;;;;;;;9.68;53.46;98572.00;6140775;23;20003;-93
2023/03/09 06:35:04;;;;;;;28.67;16.30;;;;;;;9.85;53.16;98587.69;6167356;23;20008;-93
2023/03/09 06:37:32;;;;;;;20.60;11.38;;;;;;;9.91;53.41;98600.81;6142661;23;20004;-92
2023/03/09 06:39:58;;;;;;;18.10;11.15;;;;;;;9.90;53.28;98588.47;6142434;23;20004;-91
2023/03/09 06:42:30;;;;;;;18.85;9.43;;;;;;;9.88;53.44;98574.50;6140274;23;20004;-92
2023/03/09 06:44:58;;;;;;;24.38;10.35;;;;;;;10.02;52.79;98574.66;6146162;23;20435;-94
2023/03/09 06:47:54;;;;;;;17.23;7.72;;;;;;;10.13;52.56;98583.41;6143628;23;20043;-93
2023/03/09 06:53:25;;;;;;;18.60;9.55;;;;;;;10.49;52.11;98583.84;6126740;23;20361;-94
2023/03/09 06:56:14;;;;;;;18.65;8.05;;;;;;;10.72;51.51;98579.50;6073432;23;20344;-96
2023/03/09 06:58:45;;;;;;;19.95;7.32;;;;;;;10.75;50.51;98567.38;6044588;23;20529;-94
2023/03/09 07:01:42;;;;;;;19.17;7.13;;;;;;;10.89;50.47;98551.28;6079554;23;20025;-94
2023/03/09 07:04:11;;;;;;;94.63;51.38;;;;;;;11.07;50.11;98557.78;5994320;23;20047;-94
2023/03/09 07:16:47;;;;;;;52.85;25.48;;;;;;;11.80;46.26;98569.84;6041265;23;20030;-94
2023/03/09 07:19:48;;;;;;;14.02;6.05;;;;;;;12.08;46.00;98580.72;5967444;23;20308;-94
2023/03/09 07:22:20;;;;;;;7.47;4.85;;;;;;;12.21;45.60;98574.53;5953421;23;20039;-94
2023/03/09 07:24:45;;;;;;;;;;;;;;;12.37;45.32;98574.22;6084552;23;20006;-92
2023/03/09 07:27:20;;;;;;;12.82;5.18;;;;;;;12.47;44.69;98565.94;6154807;23;20362;-93
2023/03/09 07:29:49;;;;;;;17.95;5.03;;;;;;;12.68;44.57;98586.03;6165887;23;20131;-93
2023/03/09 07:32:19;;;;;;;13.77;5.82;;;;;;;12.64;43.85;98555.31;6165460;23;20329;-94
2023/03/09 07:34:45;;;;;;;17.63;6.43;;;;;;;12.71;43.76;98552.22;6142616;23;20000;-95
2023/03/09 07:37:46;;;;;;;13.18;5.65;;;;;;;12.97;43.37;98551.66;6167116;23;20028;-94
2023/03/09 07:40:25;;;;;;;10.05;5.68;;;;;;;13.30;42.66;98573.91;6196499;23;20008;-95
2023/03/09 07:42:53;;;;;;;10.35;5.22;;;;;;;13.29;42.48;98566.91;6143666;23;20467;-94
2023/03/09 07:45:20;;;;;;;11.20;6.40;;;;;;;13.43;41.92;98564.97;6190751;23;20073;-92
2023/03/09 07:47:47;;;;;;;8.20;5.28;;;;;;;13.58;41.36;98552.97;6164082;23;20009;-93
2023/03/09 07:50:18;;;;;;;10.68;5.45;;;;;;;13.89;40.46;98563.81;6191153;23;20031;-94
2023/03/09 07:52:50;;;;;;;14.52;7.50;;;;;;;14.06;40.89;98559.59;6144547;23;20011;-93
2023/03/09 07:55:22;;;;;;;;;;;;;;;14.19;40.65;98564.09;6144359;23;20062;-91
2023/03/09 07:57:47;;;;;;;15.70;7.25;;;;;;;14.26;40.36;98545.50;6168666;23;19914;-93
2023/03/09 08:00:21;;;;;;;23.25;6.13;;;;;;;14.35;39.56;98542.81;6168223;23;20060;-91
2023/03/09 08:02:47;;;;;;;17.30;6.25;;;;;;;14.45;39.37;98542.53;6167787;23;20355;-94
2023/03/09 08:05:18;;;;;;;18.55;5.80;;;;;;;14.68;39.69;98556.03;6142371;23;20063;-93
2023/03/09 08:07:46;;;;;;;17.23;6.40;;;;;;;14.79;39.27;98553.81;6166952;23;20084;-92
2023/03/09 08:10:13;;;;;;;12.15;5.15;;;;;;;14.86;38.14;98549.53;6143603;23;20013;-94
2023/03/09 08:12:43;;;;;;;14.95;6.30;;;;;;;15.03;38.50;98548.72;6166681;23;20004;-92
2023/03/09 08:15:10;;;;;;;10.88;6.53;;;;;;;15.18;37.76;98535.81;6143983;23;20007;-94
2023/03/09 08:17:45;;;;;;;17.13;8.88;;;;;;;15.12;37.65;98522.41;6141888;23;20003;-94
2023/03/09 08:20:17;;;;;;;8.70;4.82;;;;;;;15.35;37.39;98546.66;6146861;23;20027;-92
2023/03/09 08:22:43;;;;;;;32.03;20.25;;;;;;;15.39;37.17;98525.13;6168075;23;20082;-93
2023/03/09 08:25:11;;;;;;;21.38;8.13;;;;;;;15.50;37.27;98539.94;6143612;23;20001;-93
2023/03/09 08:27:53;;;;;;;30.85;15.32;;;;;;;15.78;36.49;98545.81;6167250;23;20019;-93
2023/03/09 08:30:25;;;;;;;20.67;6.82;;;;;;;15.86;36.18;98533.34;6146185;23;20012;-95
2023/03/09 08:33:00;;;;;;;16.77;7.35;;;;;;;16.12;35.34;98536.78;6145830;23;20350;-94
2023/03/09 08:35:40;;;;;;;11.60;5.13;;;;;;;16.34;35.02;98535.72;6177078;23;20407;-94
2023/03/09 08:39:12;;;;;;;26.20;12.80;;;;;;;16.62;35.39;98535.25;6110670;23;20145;-94
2023/03/09 08:41:46;;;;;;;12.32;6.05;;;;;;;17.05;33.53;98553.22;6116021;23;20006;-94
2023/03/09 08:44:34;;;;;;;85.82;48.38;;;;;;;17.25;33.94;98548.91;6082781;23;20018;-94
2023/03/09 08:47:10;;;;;;;66.57;41.42;;;;;;;17.41;31.81;98537.41;6082173;23;20006;-94
2023/03/09 08:49:40;;;;;;;11.13;5.13;;;;;;;17.54;31.04;98520.00;6078091;23;20049;-92
2023/03/09 08:52:07;;;;;;;6.88;3.53;;;;;;;17.77;30.80;98518.47;6078514;23;20009;-92
2023/03/09 08:54:32;;;;;;;9.65;3.75;;;;;;;18.02;30.71;98520.47;6077323;23;20006;-92
2023/03/09 08:56:59;;;;;;;6.45;3.08;;;;;;;18.23;30.11;98528.53;6077227;23;20009;-90
2023/03/09 08:59:24;;;;;;;11.70;2.88;;;;;;;18.31;30.08;98514.00;6077501;23;20291;-91
2023/03/09 09:02:00;;;;;;;4.95;2.00;;;;;;;18.49;29.21;98526.28;6104631;23;20009;-94
2023/03/09 09:04:26;;;;;;;7.50;2.08;;;;;;;18.46;29.06;98515.25;6079528;23;20096;-93
2023/03/09 09:06:53;;;;;;;7.28;2.05;;;;;;;18.62;28.94;98518.09;6077862;23;20417;-94
2023/03/09 09:09:39;;;;;;;4.78;1.42;;;;;;;18.76;28.69;98519.31;6097024;23;20063;-93
2023/03/09 09:12:33;;;;;;;3.00;1.90;;;;;;;18.95;29.33;98512.50;6152431;23;20001;-94
2023/03/09 09:15:13;;;;;;;10.57;3.70;;;;;;;18.98;29.40;98500.88;6168664;23;20435;-94
2023/03/09 09:17:45;;;;;;;5.70;1.85;;;;;;;19.12;28.99;98495.81;6137004;23;20002;-95
2023/03/09 09:20:27;;;;;;;;;;;;;;;19.17;28.26;98502.97;6084876;23;20005;-94
2023/03/09 09:26:22;;;;;;;2.95;1.50;;;;;;;19.27;28.02;98501.69;6074748;23;20141;-94
2023/03/09 09:28:55;;;;;;;10.60;6.03;;;;;;;19.37;28.47;98491.06;6084743;23;20164;-94
2023/03/09 09:31:21;;;;;;;10.63;2.03;;;;;;;19.50;28.40;98497.25;6084354;23;20096;-93
2023/03/09 09:33:53;;;;;;;5.60;1.77;;;;;;;19.54;28.46;98473.56;6084769;23;20096;-94
2023/03/09 09:36:19;;;;;;;28.13;6.38;;;;;;;19.70;27.92;98470.06;6090665;23;20032;-95
2023/03/09 09:42:29;;;;;;;9.90;3.22;;;;;;;19.89;28.10;98481.09;6171181;23;20056;-95
2023/03/09 09:50:37;;;;;;;7.18;1.70;;;;;;;19.82;28.05;98467.28;6208791;22;20021;-96
2023/03/09 10:51:28;;;;;;;1.63;0.90;;;;;;;20.34;27.76;98367.75;6179240;23;20021;-93
2023/03/09 10:54:46;;;;;;;6.55;1.05;;;;;;;20.30;27.67;98371.56;6165007;23;20063;-92
2023/03/09 10:57:25;;;;;;;1.08;0.80;;;;;;;20.18;28.00;98370.53;6050890;23;20011;-95
2023/03/09 11:09:25;;;;;;;;;;;;;;;;;;;;;
2023/03/09 12:04:22;;;;;;;2.87;0.90;;;;;;;19.99;28.13;98255.72;6105815;23;20081;-95
2023/03/09 12:07:03;;;;;;;0.80;0.52;;;;;;;19.98;27.76;98241.28;6055329;23;20007;-93
2023/03/09 12:21:29;;;;;;;;;;;;;;;;;;;;;
2023/03/09 12:28:02;;;;;;;;;;;;;;;;;;;;;
2023/03/09 12:31:49;;;;;;;;;;;;;;;;;;;;;
2023/03/09 12:34:57;;;;;;;;;;;;;;;;;;;;;
2023/03/09 12:38:02;;;;;;;6.18;1.73;;;;;;;21.02;26.78;98211.53;6143361;23;20002;-96
2023/03/09 12:44:47;;;;;;;6.28;1.20;;;;;;;21.27;27.13;98237.38;6139481;23;20025;-96
2023/03/09 12:47:57;;;;;;;1.63;1.00;;;;;;;21.16;26.47;98228.97;6087712;23;20026;-95
2023/03/09 12:50:48;;;;;;;2.33;1.13;;;;;;;21.06;26.84;98210.44;6053300;23;20386;-93
2023/03/09 12:53:33;;;;;;;1.58;0.75;;;;;;;20.94;26.81;98207.91;6054173;23;20045;-94
2023/03/09 12:56:03;;;;;;;3.25;0.80;;;;;;;20.99;26.96;98215.81;6056520;23;20002;-93
2023/03/09 12:58:32;;;;;;;9.52;1.52;;;;;;;21.08;27.22;98223.75;6058548;23;20090;-94
2023/03/09 13:01:53;;;;;;;6.10;2.08;;;;;;;21.11;27.14;98220.31;6130320;22;20032;-94
2023/03/09 13:04:41;;;;;;;5.53;1.65;;;;;;;21.23;26.68;98213.81;6169914;23;20415;-95
2023/03/09 13:07:27;;;;;;;3.17;1.85;;;;;;;21.23;26.78;98206.41;6146730;23;20020;-94
2023/03/09 13:10:05;;;;;;;4.28;1.77;;;;;;;21.25;26.29;98226.00;6122307;23;20004;-94
2023/03/09 13:13:04;;;;;;;1.30;0.70;;;;;;;21.24;26.03;98218.94;6123293;23;20020;-93
2023/03/09 13:15:35;;;;;;;0.98;0.70;;;;;;;21.13;26.17;98207.81;6146423;23;20001;-94
2023/03/09 13:21:44;;;;;;;1.77;0.70;;;;;;;21.07;26.23;98189.34;6169088;23;20005;-95
2023/03/09 13:24:49;;;;;;;0.77;0.57;;;;;;;21.21;26.29;98200.50;6109439;22;20306;-93
2023/03/09 13:27:33;;;;;;;1.52;0.73;;;;;;;21.40;26.02;98197.66;6126789;23;20524;-93
2023/03/09 13:30:20;;;;;;;5.78;1.00;;;;;;;21.27;26.38;98179.06;6084393;23;20002;-94
2023/03/09 13:43:05;;;;;;;8.57;1.25;;;;;;;21.91;25.17;98174.47;6141958;23;20021;-95
2023/03/09 13:46:01;;;;;;;1.48;0.82;;;;;;;21.98;24.78;98160.84;6087775;23;20001;-96
2023/03/09 13:48:32;;;;;;;7.05;1.50;;;;;;;22.10;25.28;98168.03;6088330;23;20080;-94
2023/03/09 13:51:12;;;;;;;3.50;1.90;;;;;;;22.16;25.19;98177.50;6083268;23;20357;-95
2023/03/09 14:03:23;;;;;;;4.43;1.80;;;;;;;21.89;25.94;98163.09;6047717;23;20015;-93
2023/03/09 14:06:23;;;;;;;2.88;1.30;;;;;;;22.00;25.05;98172.25;6049482;23;20018;-93
2023/03/09 14:57:04;;;;;;;2.05;1.00;;;;;;;21.21;27.78;98173.13;6180721;23;20024;-93
2023/03/09 14:59:33;;;;;;;7.65;1.48;;;;;;;21.12;27.71;98175.34;6140932;23;20013;-94
2023/03/09 15:14:22;;;;;;;;;;;;;;;;;;;;;
2023/03/09 15:16:55;;;;;;;3.83;1.40;;;;;;;20.55;29.11;98158.78;6164931;23;20065;-94
2023/03/09 15:19:39;;;;;;;2.38;1.20;;;;;;;20.52;29.24;98179.44;6118844;23;20001;-94
2023/03/09 15:22:14;;;;;;;5.72;1.42;;;;;;;20.31;29.56;98174.34;6116856;23;20343;-94
2023/03/09 15:24:40;;;;;;;2.05;0.98;;;;;;;20.21;29.67;98171.44;6116661;23;20009;-96
2023/03/09 15:27:32;;;;;;;3.70;1.75;;;;;;;20.13;29.72;98179.50;6113799;23;20067;-93
2023/03/09 15:29:59;;;;;;;2.88;1.63;;;;;;;20.11;29.88;98173.59;6102489;23;20456;-94
2023/03/09 15:32:25;;;;;;;2.83;1.20;;;;;;;20.05;30.01;98172.31;6077038;23;20010;-94
2023/03/09 15:34:51;;;;;;;2.55;1.30;;;;;;;20.04;30.30;98169.94;6079598;23;20084;-94
2023/03/09 15:37:17;;;;;;;6.25;1.67;;;;;;;19.95;30.45;98170.94;6079749;23;20042;-94
2023/03/09 15:39:43;;;;;;;2.10;1.50;;;;;;;19.98;30.30;98164.78;6079924;23;20057;-95
2023/03/09 15:42:15;;;;;;;3.97;1.20;;;;;;;19.99;30.26;98169.09;6079679;23;20045;-94
2023/03/09 15:44:53;;;;;;;;;;;;;;;;;;;;;
2023/03/09 15:47:23;;;;;;;3.90;1.80;;;;;;;20.13;30.41;98186.88;6098749;23;20089;-93
2023/03/09 15:50:15;;;;;;;8.73;2.17;;;;;;;20.12;30.48;98182.59;6078800;23;20009;-94
2023/03/09 15:52:41;;;;;;;14.90;3.05;;;;;;;20.12;30.68;98185.31;6095891;23;20005;-94
2023/03/09 15:55:13;;;;;;;6.15;2.10;;;;;;;20.09;30.50;98186.84;6106091;23;20004;-94
2023/03/09 15:57:39;;;;;;;12.25;2.92;;;;;;;20.08;31.47;98192.66;6112845;23;20362;-96
2023/03/09 16:00:06;;;;;;;15.10;3.13;;;;;;;20.01;31.71;98189.81;6112206;23;20008;-92
2023/03/09 16:02:46;;;;;;;26.27;11.18;;;;;;;19.92;32.27;98196.28;6113618;23;19997;-94
2023/03/09 16:05:12;;;;;;;15.57;4.03;;;;;;;19.83;32.69;98192.16;6115094;23;20005;-94
2023/03/09 16:07:38;;;;;;;8.65;2.90;;;;;;;19.72;32.89;98183.75;6112419;23;20004;-93
2023/03/09 16:10:07;;;;;;;9.77;3.30;;;;;;;19.71;33.51;98206.75;6112291;23;20084;-93
2023/03/09 16:12:54;;;;;;;16.42;3.67;;;;;;;19.59;33.72;98197.50;6113960;23;20021;-92
2023/03/09 16:15:19;;;;;;;16.40;4.53;;;;;;;19.49;33.89;98197.28;6140825;23;20088;-93
2023/03/09 16:17:56;;;;;;;19.15;4.75;;;;;;;19.45;34.13;98210.84;6140955;23;20009;-93
2023/03/09 16:20:41;;;;;;;12.27;3.83;;;;;;;19.41;34.30;98206.47;6143237;23;19997;-93
2023/03/09 16:23:06;;;;;;;18.25;3.83;;;;;;;19.25;34.55;98201.03;6167572;23;19996;-94
2023/03/09 16:25:32;;;;;;;13.52;5.10;;;;;;;19.22;35.06;98190.81;6117330;23;20001;-93
2023/03/09 16:28:00;;;;;;;23.30;5.55;;;;;;;19.26;35.16;98208.03;6118019;23;19993;-95
2023/03/09 16:30:27;;;;;;;21.90;5.05;;;;;;;19.11;34.93;98199.56;6117291;23;20012;-93
2023/03/09 16:32:58;;;;;;;13.50;4.13;;;;;;;19.15;34.90;98213.25;6116679;23;20082;-95
2023/03/09 16:35:27;;;;;;;17.13;4.40;;;;;;;19.02;35.23;98200.88;6121343;23;20001;-94
2023/03/09 16:37:54;;;;;;;39.83;6.97;;;;;;;18.95;36.18;98212.41;6115822;23;20029;-94
2023/03/09 16:40:20;;;;;;;23.13;4.95;;;;;;;18.87;35.60;98210.66;6115212;23;20048;-93
2023/03/09 16:42:49;;;;;;;26.58;4.82;;;;;;;18.74;35.87;98201.75;6117679;23;20438;-93
2023/03/09 16:45:18;;;;;;;13.18;3.78;;;;;;;18.76;35.95;98213.09;6116254;23;20005;-94
2023/03/09 16:47:48;;;;;;;16.50;4.93;;;;;;;18.72;36.30;98221.16;6141752;23;19993;-95
2023/03/09 16:50:15;;;;;;;11.88;5.47;;;;;;;18.61;36.32;98201.00;6115835;23;20039;-92
2023/03/09 16:52:41;;;;;;;17.13;7.90;;;;;;;18.64;36.59;98211.22;6116257;23;20428;-94
2023/03/09 16:55:08;;;;;;;26.23;8.85;;;;;;;18.54;36.86;98209.00;6115461;23;20000;-93
2023/03/09 16:57:34;;;;;;;14.55;5.43;;;;;;;18.52;36.81;98205.84;6114236;23;20009;-94
2023/03/09 17:00:03;;;;;;;23.70;15.50;;;;;;;18.45;36.00;98214.63;6113326;23;19997;-94
2023/03/09 17:02:30;;;;;;;17.80;8.52;;;;;;;18.43;35.96;98224.28;6113640;23;20011;-93
2023/03/09 17:04:59;;;;;;;10.48;5.93;;;;;;;18.38;36.01;98226.13;6137804;23;20025;-94
2023/03/09 17:07:26;;;;;;;6.72;3.88;;;;;;;18.28;35.14;98206.75;6113996;23;20417;-93
2023/03/09 17:09:55;;;;;;;11.13;4.40;;;;;;;18.44;35.17;98237.56;6138712;23;20008;-94
2023/03/09 17:12:22;;;;;;;18.38;4.97;;;;;;;18.46;35.76;98231.78;6116290;23;20008;-94
2023/03/09 17:14:50;;;;;;;14.70;5.30;;;;;;;18.34;35.82;98222.53;6115005;23;20021;-94
2023/03/09 17:17:39;;;;;;;22.20;5.60;;;;;;;18.38;36.37;98247.13;6115081;23;20043;-93
2023/03/09 17:20:06;;;;;;;10.63;4.25;;;;;;;18.32;36.97;98262.97;6143048;23;20027;-95
2023/03/09 17:22:32;;;;;;;7.53;4.22;;;;;;;18.31;36.62;98279.66;6113206;23;20001;-92
2023/03/09 17:24:59;;;;;;;15.02;4.47;;;;;;;18.30;36.57;98292.50;6114235;23;20007;-93
2023/03/09 17:27:25;;;;;;;12.60;6.55;;;;;;;18.16;36.55;98273.00;6115676;23;20071;-93
2023/03/09 17:29:51;;;;;;;14.57;4.90;;;;;;;18.23;36.79;98294.22;6114361;23;20488;-93
2023/03/09 17:32:16;;;;;;;12.20;6.25;;;;;;;18.17;37.00;98313.50;6113761;23;20024;-96
2023/03/09 17:34:42;;;;;;;7.50;4.30;;;;;;;18.13;37.63;98311.81;6108689;23;20349;-94
2023/03/09 17:37:08;;;;;;;6.70;5.03;;;;;;;18.13;38.56;98323.50;6116995;23;20064;-94
2023/03/09 17:39:34;;;;;;;8.70;4.50;;;;;;;18.00;38.34;98311.06;6113817;23;20284;-94
2023/03/09 17:42:02;;;;;;;13.38;6.95;;;;;;;18.13;38.04;98339.06;6114123;23;20007;-95
2023/03/09 17:44:28;;;;;;;10.43;7.07;;;;;;;18.08;39.69;98342.03;6138162;23;20012;-94
2023/03/09 17:46:57;;;;;;;14.88;9.18;;;;;;;18.01;40.28;98328.19;6112978;23;20001;-94
2023/03/09 17:49:23;;;;;;;16.20;8.90;;;;;;;18.05;41.16;98340.00;6114190;23;20005;-95
2023/03/09 17:51:49;;;;;;;16.45;9.45;;;;;;;18.02;41.65;98335.25;6136990;23;20151;-94
2023/03/09 17:54:14;;;;;;;21.85;12.90;;;;;;;17.96;41.79;98359.19;6137415;23;20005;-95
2023/03/09 17:56:40;;;;;;;25.90;10.98;;;;;;;17.92;42.18;98369.19;6112542;23;20005;-94
2023/03/09 17:59:06;;;;;;;30.00;11.13;;;;;;;17.74;43.63;98357.69;6112422;23;20001;-94
2023/03/09 18:01:31;;;;;;;11.38;6.90;;;;;;;17.77;41.52;98389.69;6112494;23;20079;-93
2023/03/09 18:03:58;;;;;;;8.98;4.70;;;;;;;17.55;44.17;98382.75;6112594;23;20059;-94
2023/03/09 18:06:28;;;;;;;6.00;3.75;;;;;;;17.45;44.17;98378.56;6139261;23;20368;-95
2023/03/09 18:08:58;;;;;;;7.30;3.58;;;;;;;17.38;45.10;98392.72;6137385;23;20069;-93
2023/03/09 18:11:39;;;;;;;7.40;4.15;;;;;;;17.41;47.48;98406.78;6139813;23;20008;-95
2023/03/09 18:14:06;;;;;;;9.75;4.82;;;;;;;17.22;48.74;98405.38;6118472;23;20016;-95
2023/03/09 18:16:32;;;;;;;9.90;5.38;;;;;;;16.94;51.54;98408.69;6137200;23;20425;-95
2023/03/09 18:19:03;;;;;;;5.43;3.50;;;;;;;16.87;48.95;98397.56;6136952;23;19997;-94
2023/03/09 18:21:29;;;;;;;7.38;3.90;;;;;;;16.90;50.98;98409.69;6113209;23;20001;-93
2023/03/09 18:23:54;;;;;;;6.38;4.25;;;;;;;16.86;52.66;98423.16;6111673;23;20097;-94
2023/03/09 18:26:23;;;;;;;6.90;4.18;;;;;;;16.88;53.34;98428.28;6136810;23;20005;-94
2023/03/09 18:28:49;;;;;;;6.20;3.50;;;;;;;16.82;54.38;98435.03;6135984;23;20008;-95
2023/03/09 18:31:15;;;;;;;6.90;3.80;;;;;;;16.73;53.43;98429.66;6111972;23;20005;-95
2023/03/09 18:33:41;;;;;;;12.30;4.43;;;;;;;16.59;56.05;98427.19;6114378;23;20084;-95
2023/03/09 18:36:13;;;;;;;11.13;3.63;;;;;;;16.51;55.84;98422.63;6114520;23;20009;-94
2023/03/09 18:38:45;;;;;;;8.02;2.88;;;;;;;16.30;58.81;98412.53;6138166;23;20043;-95
2023/03/09 18:41:16;;;;;;;6.63;3.03;;;;;;;16.09;61.08;98392.72;6115542;23;20001;-94
2023/03/09 18:43:45;;;;;;;7.55;2.70;;;;;;;16.01;59.81;98375.34;6113107;23;20001;-93
2023/03/09 18:46:11;;;;;;;5.43;3.38;;;;;;;16.02;62.85;98376.13;6136219;23;20001;-94
2023/03/09 18:48:37;;;;;;;6.85;3.53;;;;;;;15.96;63.27;98368.19;6136101;23;20003;-94
2023/03/09 18:51:03;;;;;;;12.02;4.97;;;;;;;15.75;64.15;98348.34;6112437;23;20083;-94
2023/03/09 18:53:30;;;;;;;10.48;4.65;;;;;;;15.76;64.39;98372.44;6111306;23;20005;-94
2023/03/09 18:56:00;;;;;;;6.65;4.35;;;;;;;15.62;65.37;98355.53;6137198;23;20029;-94
2023/03/09 18:58:26;;;;;;;9.55;4.68;;;;;;;15.47;65.49;98353.41;6136265;23;20016;-94
2023/03/09 19:00:52;;;;;;;9.52;4.82;;;;;;;15.42;65.03;98367.13;6135825;23;19997;-94
2023/03/09 19:03:18;;;;;;;8.38;4.55;;;;;;;15.36;65.57;98356.47;6136605;23;20064;-95
2023/03/09 19:05:44;;;;;;;9.65;5.45;;;;;;;15.21;65.92;98361.63;6137075;23;20171;-94